createdAt,value
2019-02-17T00:01:49.934Z,2.80
2019-02-17T00:04:19.379Z,2.80
2019-02-17T00:06:48.854Z,2.70
2019-02-17T00:09:18.243Z,2.70
2019-02-17T00:11:47.862Z,2.70
2019-02-17T00:14:17.294Z,2.60
2019-02-17T00:16:46.650Z,2.60
2019-02-17T00:19:16.109Z,2.60
2019-02-17T00:21:45.468Z,2.50
2019-02-17T00:24:15.065Z,2.50
2019-02-17T00:26:44.515Z,2.50
2019-02-17T00:29:13.876Z,2.50
2019-02-17T00:31:43.330Z,2.50
2019-02-17T00:34:13.795Z,2.40
2019-02-17T00:36:43.424Z,2.40
2019-02-17T00:39:12.967Z,2.40
2019-02-17T00:41:42.456Z,2.30
2019-02-17T00:44:11.905Z,2.30
2019-02-17T00:46:41.255Z,2.20
2019-02-17T00:49:10.630Z,2.20
2019-02-17T00:51:40.187Z,2.30
2019-02-17T00:54:09.637Z,2.30
2019-02-17T00:56:39.039Z,2.30
2019-02-17T00:59:10.429Z,2.30
2019-02-17T01:01:39.625Z,2.30
2019-02-17T01:04:08.981Z,2.30
2019-02-17T01:06:38.483Z,2.40
2019-02-17T01:09:07.887Z,2.40
2019-02-17T01:11:37.338Z,2.40
2019-02-17T01:14:06.785Z,2.40
2019-02-17T01:16:36.128Z,2.40
2019-02-17T01:19:05.538Z,2.30
2019-02-17T01:21:34.909Z,2.30
2019-02-17T01:24:04.346Z,2.30
2019-02-17T01:26:33.757Z,2.30
2019-02-17T01:29:03.132Z,2.40
2019-02-17T01:31:32.566Z,2.40
2019-02-17T01:34:09.904Z,2.30
2019-02-17T01:36:39.353Z,2.30
2019-02-17T01:39:09.002Z,2.30
2019-02-17T01:41:38.446Z,2.30
2019-02-17T01:44:07.997Z,2.20
2019-02-17T01:46:38.523Z,2.20
2019-02-17T01:49:08.133Z,2.20
2019-02-17T01:51:37.516Z,2.10
2019-02-17T01:54:06.843Z,2.10
2019-02-17T01:56:36.282Z,2.00
2019-02-17T01:59:05.682Z,1.90
2019-02-17T02:01:35.107Z,1.90
2019-02-17T02:04:04.462Z,2.00
2019-02-17T02:06:33.913Z,2.00
2019-02-17T02:09:04.193Z,1.90
2019-02-17T02:11:33.736Z,1.90
2019-02-17T02:14:03.398Z,2.00
2019-02-17T02:16:32.782Z,2.00
2019-02-17T02:19:02.257Z,1.90
2019-02-17T02:21:31.622Z,1.90
2019-02-17T02:24:01.030Z,2.00
2019-02-17T02:26:30.462Z,2.00
2019-02-17T02:28:59.867Z,2.00
2019-02-17T02:31:29.279Z,2.00
2019-02-17T02:33:58.737Z,2.00
2019-02-17T02:36:28.309Z,2.10
2019-02-17T02:38:57.725Z,2.00
2019-02-17T02:41:34.331Z,2.10
2019-02-17T02:43:58.274Z,2.00
2019-02-17T02:46:27.711Z,2.10
2019-02-17T02:48:57.094Z,2.10
2019-02-17T02:51:26.472Z,2.00
2019-02-17T02:53:55.915Z,2.00
2019-02-17T02:56:25.330Z,2.00
2019-02-17T02:58:54.902Z,2.00
2019-02-17T03:01:24.263Z,2.00
2019-02-17T03:03:53.575Z,2.00
2019-02-17T03:06:29.717Z,2.00
2019-02-17T03:08:59.451Z,2.00
2019-02-17T03:11:28.845Z,2.00
2019-02-17T03:13:58.221Z,2.00
2019-02-17T03:16:27.725Z,2.00
2019-02-17T03:18:57.049Z,1.90
2019-02-17T03:21:26.426Z,1.90
2019-02-17T03:23:55.907Z,1.90
2019-02-17T03:26:25.355Z,1.90
2019-02-17T03:28:54.801Z,1.90
2019-02-17T03:31:24.160Z,1.90
2019-02-17T03:33:53.612Z,1.80
2019-02-17T03:36:23.026Z,1.90
2019-02-17T03:38:52.542Z,1.80
2019-02-17T03:41:21.942Z,1.80
2019-02-17T03:43:51.335Z,1.90
2019-02-17T03:46:20.673Z,1.90
2019-02-17T03:48:50.202Z,1.90
2019-02-17T03:51:19.644Z,1.90
2019-02-17T03:53:49.117Z,1.80
2019-02-17T03:56:18.559Z,1.90
2019-02-17T03:58:47.950Z,1.80
2019-02-17T04:01:17.366Z,1.80
2019-02-17T04:03:46.679Z,1.80
2019-02-17T04:06:16.073Z,1.80
2019-02-17T04:08:45.525Z,1.80
2019-02-17T04:11:14.960Z,1.80
2019-02-17T04:13:44.308Z,1.80
2019-02-17T04:16:13.761Z,1.70
2019-02-17T04:18:43.113Z,1.70
2019-02-17T04:21:12.565Z,1.70
2019-02-17T04:23:42.063Z,1.70
2019-02-17T04:26:11.510Z,1.60
2019-02-17T04:28:40.923Z,1.60
2019-02-17T04:31:10.327Z,1.60
2019-02-17T04:33:39.794Z,1.50
2019-02-17T04:36:09.162Z,1.50
2019-02-17T04:38:38.582Z,1.40
2019-02-17T04:41:08.028Z,1.40
2019-02-17T04:43:37.514Z,1.30
2019-02-17T04:46:06.939Z,1.40
2019-02-17T04:48:36.538Z,1.40
2019-02-17T04:51:05.935Z,1.40
2019-02-17T04:53:35.357Z,1.30
2019-02-17T04:56:04.798Z,1.30
2019-02-17T04:58:34.134Z,1.30
2019-02-17T05:01:03.591Z,1.30
2019-02-17T05:03:32.960Z,1.30
2019-02-17T05:06:02.451Z,1.20
2019-02-17T05:08:31.898Z,1.30
2019-02-17T05:11:01.255Z,1.30
2019-02-17T05:13:30.723Z,1.30
2019-02-17T05:16:00.106Z,1.20
2019-02-17T05:18:29.523Z,1.20
2019-02-17T05:20:58.879Z,1.20
2019-02-17T05:23:28.221Z,1.20
2019-02-17T05:25:57.671Z,1.20
2019-02-17T05:28:27.072Z,1.20
2019-02-17T05:30:56.479Z,1.20
2019-02-17T05:33:25.917Z,1.20
2019-02-17T05:35:55.322Z,1.20
2019-02-17T05:38:24.690Z,1.20
2019-02-17T05:40:54.136Z,1.20
2019-02-17T05:43:23.546Z,1.20
2019-02-17T05:45:53.049Z,1.20
2019-02-17T05:48:22.454Z,1.20
2019-02-17T05:50:51.872Z,1.30
2019-02-17T05:53:21.302Z,1.20
2019-02-17T05:55:50.706Z,1.30
2019-02-17T05:58:20.158Z,1.30
2019-02-17T06:00:49.655Z,1.30
2019-02-17T06:03:19.209Z,1.30
2019-02-17T06:05:48.637Z,1.30
2019-02-17T06:08:18.062Z,1.30
2019-02-17T06:10:47.518Z,1.30
2019-02-17T06:13:16.965Z,1.30
2019-02-17T06:15:46.315Z,1.30
2019-02-17T06:18:15.978Z,1.30
2019-02-17T06:20:45.394Z,1.30
2019-02-17T06:23:14.728Z,1.30
2019-02-17T06:25:44.170Z,1.30
2019-02-17T06:28:13.625Z,1.30
2019-02-17T06:30:42.981Z,1.40
2019-02-17T06:33:12.409Z,1.40
2019-02-17T06:35:41.849Z,1.40
2019-02-17T06:38:11.250Z,1.40
2019-02-17T06:40:40.682Z,1.40
2019-02-17T06:43:10.102Z,1.50
2019-02-17T06:45:39.559Z,1.60
2019-02-17T06:48:09.002Z,1.60
2019-02-17T06:50:38.366Z,1.70
2019-02-17T06:53:07.819Z,1.80
2019-02-17T06:55:48.126Z,1.80
2019-02-17T06:58:17.583Z,1.90
2019-02-17T07:00:49.732Z,1.90
2019-02-17T07:03:19.196Z,1.90
2019-02-17T07:06:10.728Z,1.90
2019-02-17T07:08:40.138Z,2.00
2019-02-17T07:11:09.658Z,2.00
2019-02-17T07:13:39.157Z,2.10
2019-02-17T07:16:08.537Z,2.20
2019-02-17T07:18:37.951Z,2.20
2019-02-17T07:21:07.419Z,2.30
2019-02-17T07:23:36.920Z,2.30
2019-02-17T07:26:06.392Z,2.40
2019-02-17T07:28:35.856Z,2.40
2019-02-17T07:31:05.439Z,2.50
2019-02-17T07:33:35.160Z,2.60
2019-02-17T07:36:04.734Z,2.60
2019-02-17T07:38:34.247Z,2.70
2019-02-17T07:41:03.714Z,2.80
2019-02-17T07:43:33.351Z,2.80
2019-02-17T07:46:02.686Z,2.90
2019-02-17T07:48:32.089Z,2.90
2019-02-17T07:51:01.536Z,3.00
2019-02-17T07:53:30.931Z,3.00
2019-02-17T07:56:00.438Z,3.10
2019-02-17T07:58:29.943Z,3.10
2019-02-17T08:00:59.361Z,3.20
2019-02-17T08:03:28.866Z,3.30
2019-02-17T08:05:58.205Z,3.40
2019-02-17T08:08:27.696Z,3.50
2019-02-17T08:11:03.689Z,3.60
2019-02-17T08:13:28.222Z,3.70
2019-02-17T08:15:57.654Z,3.80
2019-02-17T08:18:27.194Z,3.90
2019-02-17T08:20:56.624Z,3.90
2019-02-17T08:23:26.067Z,4.10
2019-02-17T08:25:55.435Z,4.10
2019-02-17T08:28:24.769Z,4.20
2019-02-17T08:30:54.247Z,4.30
2019-02-17T08:33:23.594Z,4.50
2019-02-17T08:35:53.062Z,4.50
2019-02-17T08:38:22.419Z,4.60
2019-02-17T08:40:51.984Z,4.70
2019-02-17T08:43:21.493Z,4.90
2019-02-17T08:45:50.966Z,5.00
2019-02-17T08:48:20.288Z,5.10
2019-02-17T08:50:49.886Z,5.20
2019-02-17T08:53:19.417Z,5.50
2019-02-17T08:55:48.799Z,5.60
2019-02-17T08:58:18.266Z,5.60
2019-02-17T09:00:47.609Z,5.60
2019-02-17T09:03:17.057Z,5.70
2019-02-17T09:05:46.407Z,5.70
2019-02-17T09:08:15.860Z,5.80
2019-02-17T09:10:45.489Z,6.00
2019-02-17T09:13:14.950Z,5.80
2019-02-17T09:15:44.377Z,5.90
2019-02-17T09:18:14.067Z,5.90
2019-02-17T09:20:43.602Z,5.90
2019-02-17T09:23:12.995Z,6.00
2019-02-17T09:25:42.446Z,5.90
2019-02-17T09:28:11.994Z,6.00
2019-02-17T09:30:41.351Z,6.10
2019-02-17T09:33:10.814Z,6.00
2019-02-17T09:35:40.164Z,6.10
2019-02-17T09:38:09.626Z,6.20
2019-02-17T09:40:38.965Z,6.20
2019-02-17T09:43:08.415Z,6.20
2019-02-17T09:45:37.799Z,6.30
2019-02-17T09:48:07.222Z,6.30
2019-02-17T09:50:36.632Z,6.30
2019-02-17T09:53:06.114Z,6.30
2019-02-17T09:55:35.546Z,6.30
2019-02-17T09:58:05.033Z,6.30
2019-02-17T10:00:34.407Z,6.30
2019-02-17T10:03:03.834Z,6.30
2019-02-17T10:05:33.193Z,6.30
2019-02-17T10:08:02.637Z,6.40
2019-02-17T10:10:31.977Z,6.40
2019-02-17T10:13:01.603Z,6.40
2019-02-17T10:15:30.972Z,6.50
2019-02-17T10:18:00.481Z,6.50
2019-02-17T10:20:29.880Z,6.70
2019-02-17T10:22:59.497Z,6.80
2019-02-17T10:25:28.914Z,6.80
2019-02-17T10:27:58.462Z,6.80
2019-02-17T10:30:27.927Z,6.90
2019-02-17T10:32:57.326Z,7.00
2019-02-17T10:35:26.920Z,6.90
2019-02-17T10:37:56.370Z,6.90
2019-02-17T10:40:25.853Z,7.00
2019-02-17T10:42:55.415Z,7.10
2019-02-17T10:45:24.831Z,7.20
2019-02-17T10:47:54.422Z,7.40
2019-02-17T10:50:23.857Z,7.40
2019-02-17T10:52:53.338Z,7.50
2019-02-17T10:55:22.812Z,7.50
2019-02-17T10:57:52.133Z,7.50
2019-02-17T11:00:21.610Z,7.50
2019-02-17T11:02:52.043Z,7.60
2019-02-17T11:05:21.558Z,7.60
2019-02-17T11:07:50.953Z,7.70
2019-02-17T11:10:20.339Z,7.70
2019-02-17T11:12:49.708Z,7.90
2019-02-17T11:15:19.498Z,8.00
2019-02-17T11:17:48.941Z,8.20
2019-02-17T11:20:18.407Z,8.60
2019-02-17T11:22:48.468Z,8.90
2019-02-17T11:25:17.886Z,9.20
2019-02-17T11:27:47.279Z,9.50
2019-02-17T11:30:17.022Z,9.80
2019-02-17T11:32:56.726Z,9.70
2019-02-17T11:35:17.666Z,9.80
2019-02-17T11:37:47.079Z,9.60
2019-02-17T11:40:16.536Z,9.60
2019-02-17T11:42:45.926Z,9.60
2019-02-17T11:45:17.240Z,9.60
2019-02-17T11:47:46.870Z,9.70
2019-02-17T11:50:16.260Z,9.70
2019-02-17T11:52:45.710Z,9.50
2019-02-17T11:55:15.141Z,9.60
2019-02-17T11:57:44.463Z,9.70
2019-02-17T12:00:16.756Z,9.70
2019-02-17T12:02:46.158Z,9.50
2019-02-17T12:05:15.573Z,9.50
2019-02-17T12:07:44.958Z,9.40
2019-02-17T12:10:14.476Z,9.40
2019-02-17T12:12:44.225Z,9.40
2019-02-17T12:15:13.801Z,9.30
2019-02-17T12:17:43.143Z,9.30
2019-02-17T12:20:37.532Z,9.30
2019-02-17T12:23:13.806Z,9.30
2019-02-17T12:25:59.907Z,9.30
2019-02-17T12:28:36.504Z,9.30
2019-02-17T12:31:06.362Z,9.30
2019-02-17T12:33:35.762Z,9.30
2019-02-17T12:36:05.231Z,9.30
2019-02-17T12:38:34.716Z,9.30
2019-02-17T12:41:04.135Z,9.30
2019-02-17T12:43:33.546Z,9.30
2019-02-17T12:46:02.880Z,9.20
2019-02-17T12:48:32.262Z,9.10
2019-02-17T12:51:01.622Z,9.20
2019-02-17T12:53:30.966Z,9.20
2019-02-17T12:56:00.348Z,9.20
2019-02-17T12:58:30.369Z,9.10
2019-02-17T13:00:59.846Z,9.10
2019-02-17T13:03:29.198Z,9.10
2019-02-17T13:05:58.647Z,9.10
2019-02-17T13:08:28.062Z,9.20
2019-02-17T13:10:57.394Z,9.20
2019-02-17T13:13:26.749Z,9.10
2019-02-17T13:15:56.101Z,9.10
2019-02-17T13:18:25.559Z,9.00
2019-02-17T13:20:55.018Z,9.00
2019-02-17T13:23:24.609Z,9.00
2019-02-17T13:25:54.029Z,9.00
2019-02-17T13:28:23.421Z,9.10
2019-02-17T13:30:53.776Z,9.00
2019-02-17T13:33:23.446Z,8.90
2019-02-17T13:35:52.842Z,9.00
2019-02-17T13:38:22.283Z,8.90
2019-02-17T13:40:51.707Z,8.90
2019-02-17T13:43:21.175Z,8.80
2019-02-17T13:45:50.660Z,8.80
2019-02-17T13:48:20.114Z,8.90
2019-02-17T13:50:49.466Z,8.90
2019-02-17T13:53:18.930Z,8.80
2019-02-17T13:55:48.298Z,8.80
2019-02-17T13:58:17.747Z,8.80
2019-02-17T14:00:47.074Z,8.70
2019-02-17T14:03:16.632Z,8.70
2019-02-17T14:05:46.042Z,8.60
2019-02-17T14:08:15.395Z,8.60
2019-02-17T14:10:44.827Z,8.70
2019-02-17T14:13:14.498Z,8.70
2019-02-17T14:15:43.854Z,8.60
2019-02-17T14:18:13.378Z,8.60
2019-02-17T14:20:42.867Z,8.60
2019-02-17T14:23:12.222Z,8.60
2019-02-17T14:25:41.686Z,8.60
2019-02-17T14:28:11.102Z,8.60
2019-02-17T14:30:40.502Z,8.60
2019-02-17T14:33:09.858Z,8.60
2019-02-17T14:35:39.385Z,8.60
2019-02-17T14:38:08.901Z,8.60
2019-02-17T14:40:38.291Z,8.60
2019-02-17T14:43:07.618Z,8.50
2019-02-17T14:45:37.178Z,8.50
2019-02-17T14:48:06.568Z,8.50
2019-02-17T14:50:35.995Z,8.50
2019-02-17T14:53:05.467Z,8.50
2019-02-17T14:55:34.990Z,8.40
2019-02-17T14:58:05.689Z,8.40
2019-02-17T15:00:35.496Z,8.40
2019-02-17T15:03:04.888Z,8.40
2019-02-17T15:05:34.281Z,8.30
2019-02-17T15:08:03.784Z,8.30
2019-02-17T15:10:33.213Z,8.30
2019-02-17T15:13:02.662Z,8.30
2019-02-17T15:15:32.218Z,8.30
2019-02-17T15:18:01.643Z,8.20
2019-02-17T15:20:31.226Z,8.20
2019-02-17T15:23:00.744Z,8.20
2019-02-17T15:25:30.330Z,8.10
2019-02-17T15:27:59.920Z,8.10
2019-02-17T15:30:31.148Z,8.10
2019-02-17T15:33:04.116Z,8.10
2019-02-17T15:35:31.815Z,8.10
2019-02-17T15:38:01.289Z,8.00
2019-02-17T15:40:30.655Z,8.00
2019-02-17T15:43:00.343Z,8.00
2019-02-17T15:45:29.744Z,8.00
2019-02-17T15:47:59.161Z,7.90
2019-02-17T15:50:28.626Z,7.90
2019-02-17T15:52:58.145Z,7.90
2019-02-17T15:55:27.564Z,7.90
2019-02-17T15:57:56.983Z,7.90
2019-02-17T16:00:26.420Z,7.90
2019-02-17T16:02:55.802Z,7.90
2019-02-17T16:05:25.182Z,7.90
2019-02-17T16:07:54.646Z,7.80
2019-02-17T16:10:24.076Z,7.80
2019-02-17T16:12:53.563Z,7.90
2019-02-17T16:15:23.290Z,7.80
2019-02-17T16:17:52.740Z,7.80
2019-02-17T16:20:22.074Z,7.80
2019-02-17T16:22:51.570Z,7.80
2019-02-17T16:25:20.979Z,7.80
2019-02-17T16:27:50.382Z,7.80
2019-02-17T16:30:19.760Z,7.80
2019-02-17T16:32:49.300Z,7.80
2019-02-17T16:35:18.754Z,7.80
2019-02-17T16:37:48.167Z,7.80
2019-02-17T16:40:17.771Z,7.70
2019-02-17T16:42:47.241Z,7.70
2019-02-17T16:45:16.730Z,7.70
2019-02-17T16:47:46.177Z,7.70
2019-02-17T16:50:17.775Z,7.70
2019-02-17T16:52:47.239Z,7.70
2019-02-17T16:55:16.588Z,7.70
2019-02-17T16:57:46.031Z,7.70
2019-02-17T17:00:18.345Z,7.70
2019-02-17T17:02:48.036Z,7.80
2019-02-17T17:05:17.677Z,7.80
2019-02-17T17:07:47.186Z,7.80
2019-02-17T17:10:16.624Z,7.70
2019-02-17T17:12:46.086Z,7.80
2019-02-17T17:15:15.997Z,7.80
2019-02-17T17:17:45.736Z,7.80
2019-02-17T17:20:15.969Z,7.70
2019-02-17T17:22:45.323Z,7.70
2019-02-17T17:25:15.327Z,7.70
2019-02-17T17:27:44.951Z,7.70
2019-02-17T17:30:14.475Z,7.70
2019-02-17T17:32:44.261Z,7.70
2019-02-17T17:35:13.875Z,7.70
2019-02-17T17:37:43.446Z,7.70
2019-02-17T17:40:12.846Z,7.70
2019-02-17T17:42:42.284Z,7.70
2019-02-17T17:45:13.262Z,7.70
2019-02-17T17:47:42.634Z,7.70
2019-02-17T17:50:13.282Z,7.60
2019-02-17T17:52:42.756Z,7.60
2019-02-17T17:55:12.900Z,7.60
2019-02-17T17:57:44.902Z,7.60
2019-02-17T18:00:16.922Z,7.60
2019-02-17T18:02:46.349Z,7.60
2019-02-17T18:05:16.103Z,7.60
2019-02-17T18:07:45.509Z,7.60
2019-02-17T18:10:15.300Z,7.60
2019-02-17T18:12:44.829Z,7.60
2019-02-17T18:15:14.658Z,7.60
2019-02-17T18:17:53.472Z,7.50
2019-02-17T18:20:15.185Z,7.50
2019-02-17T18:22:44.631Z,7.50
2019-02-17T18:25:14.387Z,7.50
2019-02-17T18:27:43.802Z,7.50
2019-02-17T18:30:16.555Z,7.50
2019-02-17T18:32:46.339Z,7.50
2019-02-17T18:35:19.918Z,7.50
2019-02-17T18:37:46.891Z,7.40
2019-02-17T18:40:16.594Z,7.40
2019-02-17T18:42:46.196Z,7.40
2019-02-17T18:45:15.610Z,7.40
2019-02-17T18:47:45.046Z,7.40
2019-02-17T18:50:14.614Z,7.30
2019-02-17T18:52:44.257Z,7.30
2019-02-17T18:55:13.931Z,7.30
2019-02-17T18:57:50.122Z,7.30
2019-02-17T19:00:15.381Z,7.30
2019-02-17T19:02:44.752Z,7.30
2019-02-17T19:05:14.438Z,7.30
2019-02-17T19:07:43.858Z,7.30
2019-02-17T19:10:13.377Z,7.20
2019-02-17T19:12:42.949Z,7.20
2019-02-17T19:15:13.261Z,7.20
2019-02-17T19:17:42.586Z,7.20
2019-02-17T19:20:14.263Z,7.20
2019-02-17T19:22:43.708Z,7.20
2019-02-17T19:25:13.084Z,7.20
2019-02-17T19:27:42.454Z,7.20
2019-02-17T19:30:13.301Z,7.10
2019-02-17T19:32:42.739Z,7.10
2019-02-17T19:35:12.850Z,7.10
2019-02-17T19:37:42.316Z,7.10
2019-02-17T19:40:12.181Z,7.10
2019-02-17T19:42:41.919Z,7.10
2019-02-17T19:45:12.501Z,7.10
2019-02-17T19:47:42.082Z,7.10
2019-02-17T19:50:11.966Z,7.10
2019-02-17T19:52:41.382Z,7.20
2019-02-17T19:55:11.612Z,7.10
2019-02-17T19:57:41.018Z,7.10
2019-02-17T20:00:12.335Z,7.10
2019-02-17T20:03:12.801Z,7.10
2019-02-17T20:05:51.560Z,7.10
2019-02-17T20:08:15.848Z,7.10
2019-02-17T20:10:45.685Z,7.10
2019-02-17T20:13:15.102Z,7.10
2019-02-17T20:15:44.482Z,7.10
2019-02-17T20:18:14.042Z,7.10
2019-02-17T20:20:43.416Z,7.10
2019-02-17T20:23:12.923Z,7.10
2019-02-17T20:25:42.346Z,7.10
2019-02-17T20:28:11.781Z,7.10
2019-02-17T20:30:41.326Z,7.10
2019-02-17T20:33:10.778Z,7.10
2019-02-17T20:35:40.139Z,7.10
2019-02-17T20:38:09.626Z,7.00
2019-02-17T20:40:39.186Z,7.00
2019-02-17T20:43:08.734Z,7.00
2019-02-17T20:45:38.218Z,7.00
2019-02-17T20:48:07.562Z,7.00
2019-02-17T20:50:36.995Z,7.00
2019-02-17T20:53:06.374Z,7.00
2019-02-17T20:55:36.061Z,7.00
2019-02-17T20:58:05.449Z,7.00
2019-02-17T21:00:35.018Z,6.90
2019-02-17T21:03:04.464Z,6.90
2019-02-17T21:05:33.905Z,6.90
2019-02-17T21:08:03.306Z,6.90
2019-02-17T21:10:32.658Z,7.00
2019-02-17T21:13:02.123Z,7.00
2019-02-17T21:15:31.476Z,6.90
2019-02-17T21:18:01.027Z,6.90
2019-02-17T21:20:30.634Z,6.90
2019-02-17T21:22:59.966Z,7.00
2019-02-17T21:25:29.277Z,6.90
2019-02-17T21:27:58.734Z,6.90
2019-02-17T21:30:28.086Z,6.90
2019-02-17T21:32:57.685Z,6.80
2019-02-17T21:35:27.295Z,6.80
2019-02-17T21:37:56.812Z,6.80
2019-02-17T21:40:26.212Z,6.80
2019-02-17T21:42:55.610Z,6.80
2019-02-17T21:45:25.079Z,6.80
2019-02-17T21:47:54.361Z,6.70
2019-02-17T21:50:23.871Z,6.80
2019-02-17T21:52:53.411Z,6.70
2019-02-17T21:55:22.822Z,6.60
2019-02-17T21:57:52.227Z,6.70
2019-02-17T22:00:21.831Z,6.70
2019-02-17T22:02:51.219Z,6.70
2019-02-17T22:05:20.692Z,6.60
2019-02-17T22:07:50.187Z,6.50
2019-02-17T22:10:19.597Z,6.50
2019-02-17T22:12:51.147Z,6.50
2019-02-17T22:15:20.176Z,6.50
2019-02-17T22:17:49.565Z,6.50
2019-02-17T22:20:19.083Z,6.50
2019-02-17T22:22:48.479Z,6.50
2019-02-17T22:25:18.377Z,6.50
2019-02-17T22:27:47.907Z,6.40
2019-02-17T22:30:17.309Z,6.40
2019-02-17T22:32:46.784Z,6.40
2019-02-17T22:35:16.103Z,6.30
2019-02-17T22:37:45.545Z,6.30
2019-02-17T22:40:16.431Z,6.30
2019-02-17T22:42:45.756Z,6.20
2019-02-17T22:45:15.350Z,6.20
2019-02-17T22:47:44.770Z,6.20
2019-02-17T22:50:14.279Z,6.10
2019-02-17T22:52:44.515Z,6.10
2019-02-17T22:55:13.998Z,6.10
2019-02-17T22:57:43.454Z,6.20
2019-02-17T23:00:32.854Z,6.10
2019-02-17T23:03:02.374Z,6.10
2019-02-17T23:05:31.834Z,6.10
2019-02-17T23:08:02.462Z,6.20
2019-02-17T23:10:31.911Z,6.20
2019-02-17T23:13:01.749Z,6.20
2019-02-17T23:15:31.418Z,6.20
2019-02-17T23:18:00.874Z,6.30
2019-02-17T23:20:30.262Z,6.30
2019-02-17T23:22:59.731Z,6.20
2019-02-17T23:25:29.134Z,6.20
2019-02-17T23:27:58.519Z,6.20
2019-02-17T23:30:27.890Z,6.10
2019-02-17T23:32:57.261Z,6.20
2019-02-17T23:35:27.350Z,6.10
2019-02-17T23:37:56.843Z,6.00
2019-02-17T23:40:26.238Z,6.00
2019-02-17T23:42:55.553Z,6.00
2019-02-17T23:45:25.030Z,6.00
2019-02-17T23:47:54.429Z,5.90
2019-02-17T23:50:23.758Z,5.90
2019-02-17T23:52:54.650Z,5.90
2019-02-17T23:55:24.365Z,5.90
2019-02-17T23:57:53.711Z,5.90
